createdAt,value
2022-08-28T00:00:24.519Z,1012.42
2022-08-28T00:01:24.480Z,1012.42
2022-08-28T00:02:24.484Z,1012.41
2022-08-28T00:03:24.407Z,1012.37
2022-08-28T00:04:24.398Z,1012.36
2022-08-28T00:05:24.339Z,1012.36
2022-08-28T00:06:24.294Z,1012.33
2022-08-28T00:07:24.260Z,1012.36
2022-08-28T00:08:24.220Z,1012.36
2022-08-28T00:09:24.182Z,1012.36
2022-08-28T00:10:24.151Z,1012.32
2022-08-28T00:11:24.119Z,1012.39
2022-08-28T00:12:24.071Z,1012.34
2022-08-28T00:13:24.035Z,1012.37
2022-08-28T00:14:24.001Z,1012.39
2022-08-28T00:15:23.962Z,1012.39
2022-08-28T00:16:24.015Z,1012.43
2022-08-28T00:17:23.891Z,1012.41
2022-08-28T00:18:23.851Z,1012.43
2022-08-28T00:19:23.816Z,1012.42
2022-08-28T00:20:23.775Z,1012.42
2022-08-28T00:21:23.742Z,1012.46
2022-08-28T00:22:23.715Z,1012.47
2022-08-28T00:23:23.666Z,1012.46
2022-08-28T00:24:23.639Z,1012.47
2022-08-28T00:25:23.592Z,1012.49
2022-08-28T00:26:23.559Z,1012.50
2022-08-28T00:27:23.516Z,1012.54
2022-08-28T00:28:24.588Z,1012.55
2022-08-28T00:29:23.441Z,1012.54
2022-08-28T00:30:23.405Z,1012.53
2022-08-28T00:31:23.391Z,1012.60
2022-08-28T00:32:23.336Z,1012.51
2022-08-28T00:33:23.304Z,1012.55
2022-08-28T00:34:33.483Z,1012.54
2022-08-28T00:35:23.220Z,1012.52
2022-08-28T00:36:23.183Z,1012.53
2022-08-28T00:37:24.610Z,1012.54
2022-08-28T00:38:23.132Z,1012.52
2022-08-28T00:39:23.073Z,1012.53
2022-08-28T00:40:28.917Z,1012.48
2022-08-28T00:41:24.964Z,1012.52
2022-08-28T00:42:22.958Z,1012.56
2022-08-28T00:43:22.926Z,1012.51
2022-08-28T00:44:22.897Z,1012.55
2022-08-28T00:45:22.848Z,1012.54
2022-08-28T00:46:22.877Z,1012.53
2022-08-28T00:47:22.777Z,1012.54
2022-08-28T00:48:22.739Z,1012.49
2022-08-28T00:49:22.702Z,1012.53
2022-08-28T00:50:22.677Z,1012.51
2022-08-28T00:51:22.625Z,1012.56
2022-08-28T00:52:22.589Z,1012.54
2022-08-28T00:53:23.554Z,1012.53
2022-08-28T00:54:22.515Z,1012.54
2022-08-28T00:55:22.479Z,1012.55
2022-08-28T00:56:22.451Z,1012.53
2022-08-28T00:57:22.403Z,1012.54
2022-08-28T00:58:22.365Z,1012.51
2022-08-28T00:59:22.326Z,1012.51
2022-08-28T01:00:22.294Z,1012.56
2022-08-28T01:01:22.305Z,1012.50
2022-08-28T01:02:22.299Z,1012.51
2022-08-28T01:03:25.108Z,1012.58
2022-08-28T01:04:22.152Z,1012.56
2022-08-28T01:05:22.102Z,1012.57
2022-08-28T01:06:22.070Z,1012.58
2022-08-28T01:07:22.040Z,1012.62
2022-08-28T01:08:22.902Z,1012.63
2022-08-28T01:09:21.954Z,1012.59
2022-08-28T01:10:21.918Z,1012.66
2022-08-28T01:11:21.880Z,1012.62
2022-08-28T01:12:21.844Z,1012.67
2022-08-28T01:13:21.816Z,1012.62
2022-08-28T01:14:21.770Z,1012.61
2022-08-28T01:15:21.732Z,1012.58
2022-08-28T01:16:21.772Z,1012.60
2022-08-28T01:17:21.654Z,1012.61
2022-08-28T01:18:21.619Z,1012.64
2022-08-28T01:19:21.593Z,1012.59
2022-08-28T01:20:21.546Z,1012.62
2022-08-28T01:21:21.507Z,1012.60
2022-08-28T01:22:21.472Z,1012.57
2022-08-28T01:23:21.431Z,1012.61
2022-08-28T01:24:21.407Z,1012.67
2022-08-28T01:25:21.356Z,1012.66
2022-08-28T01:26:21.320Z,1012.66
2022-08-28T01:27:21.282Z,1012.68
2022-08-28T01:28:21.247Z,1012.69
2022-08-28T01:29:21.211Z,1012.73
2022-08-28T01:30:21.184Z,1012.70
2022-08-28T01:31:21.196Z,1012.72
2022-08-28T01:32:21.098Z,1012.70
2022-08-28T01:33:28.257Z,1012.67
2022-08-28T01:34:21.023Z,1012.67
2022-08-28T01:35:20.984Z,1012.68
2022-08-28T01:36:20.947Z,1012.70
2022-08-28T01:37:20.920Z,1012.70
2022-08-28T01:38:22.014Z,1012.78
2022-08-28T01:39:20.838Z,1012.75
2022-08-28T01:40:20.845Z,1012.76
2022-08-28T01:41:20.762Z,1012.77
2022-08-28T01:42:20.723Z,1012.77
2022-08-28T01:43:20.696Z,1012.74
2022-08-28T01:44:20.655Z,1012.74
2022-08-28T01:45:20.609Z,1012.74
2022-08-28T01:46:20.634Z,1012.73
2022-08-28T01:47:20.534Z,1012.72
2022-08-28T01:48:20.500Z,1012.72
2022-08-28T01:49:20.469Z,1012.70
2022-08-28T01:50:20.431Z,1012.66
2022-08-28T01:51:24.478Z,1012.70
2022-08-28T01:52:26.300Z,1012.69
2022-08-28T01:53:20.308Z,1012.65
2022-08-28T01:54:20.273Z,1012.67
2022-08-28T01:55:21.511Z,1012.70
2022-08-28T01:56:20.196Z,1012.68
2022-08-28T01:57:20.170Z,1012.63
2022-08-28T01:58:20.124Z,1012.66
2022-08-28T01:59:20.090Z,1012.68
2022-08-28T02:00:20.048Z,1012.62
2022-08-28T02:01:20.051Z,1012.60
2022-08-28T02:02:19.974Z,1012.58
2022-08-28T02:03:19.948Z,1012.64
2022-08-28T02:04:19.953Z,1012.56
2022-08-28T02:05:19.861Z,1012.58
2022-08-28T02:06:19.826Z,1012.56
2022-08-28T02:07:19.783Z,1012.59
2022-08-28T02:08:19.746Z,1012.56
2022-08-28T02:09:19.722Z,1012.51
2022-08-28T02:10:19.678Z,1012.53
2022-08-28T02:11:19.633Z,1012.49
2022-08-28T02:12:19.599Z,1012.48
2022-08-28T02:13:19.559Z,1012.50
2022-08-28T02:14:19.526Z,1012.51
2022-08-28T02:15:19.498Z,1012.51
2022-08-28T02:16:19.502Z,1012.57
2022-08-28T02:17:19.412Z,1012.57
2022-08-28T02:18:19.374Z,1012.61
2022-08-28T02:19:19.336Z,1012.63
2022-08-28T02:20:19.294Z,1012.63
2022-08-28T02:21:19.270Z,1012.64
2022-08-28T02:22:19.222Z,1012.71
2022-08-28T02:23:19.183Z,1012.75
2022-08-28T02:24:19.143Z,1012.72
2022-08-28T02:25:19.107Z,1012.78
2022-08-28T02:26:19.083Z,1012.79
2022-08-28T02:27:19.035Z,1012.79
2022-08-28T02:28:19.004Z,1012.80
2022-08-28T02:29:18.958Z,1012.84
2022-08-28T02:30:18.920Z,1012.83
2022-08-28T02:31:18.914Z,1012.82
2022-08-28T02:32:18.842Z,1012.85
2022-08-28T02:33:18.811Z,1012.82
2022-08-28T02:34:18.782Z,1012.83
2022-08-28T02:35:18.734Z,1012.86
2022-08-28T02:36:18.692Z,1012.88
2022-08-28T02:37:18.651Z,1012.87
2022-08-28T02:38:18.897Z,1012.90
2022-08-28T02:39:18.583Z,1012.93
2022-08-28T02:40:18.570Z,1012.91
2022-08-28T02:41:18.507Z,1012.92
2022-08-28T02:42:18.465Z,1012.95
2022-08-28T02:43:18.427Z,1012.94
2022-08-28T02:44:18.391Z,1012.95
2022-08-28T02:45:18.352Z,1012.98
2022-08-28T02:46:18.363Z,1012.96
2022-08-28T02:47:18.280Z,1012.96
2022-08-28T02:48:18.489Z,1012.97
2022-08-28T02:49:18.202Z,1012.94
2022-08-28T02:50:18.163Z,1012.95
2022-08-28T02:51:18.133Z,1012.94
2022-08-28T02:52:18.097Z,1012.98
2022-08-28T02:53:18.050Z,1012.98
2022-08-28T02:54:18.551Z,1013.02
2022-08-28T02:55:17.979Z,1013.00
2022-08-28T02:56:17.936Z,1013.02
2022-08-28T02:57:17.901Z,1013.01
2022-08-28T02:58:17.873Z,1012.98
2022-08-28T02:59:17.825Z,1012.99
2022-08-28T03:00:17.785Z,1013.00
2022-08-28T03:01:17.794Z,1012.97
2022-08-28T03:02:17.743Z,1012.96
2022-08-28T03:03:17.673Z,1012.96
2022-08-28T03:04:17.648Z,1012.99
2022-08-28T03:05:17.599Z,1012.97
2022-08-28T03:06:17.560Z,1012.94
2022-08-28T03:07:17.524Z,1012.94
2022-08-28T03:08:17.486Z,1012.95
2022-08-28T03:09:17.444Z,1012.93
2022-08-28T03:10:17.418Z,1012.97
2022-08-28T03:11:17.374Z,1012.90
2022-08-28T03:12:17.331Z,1012.94
2022-08-28T03:13:26.430Z,1012.92
2022-08-28T03:14:17.261Z,1012.94
2022-08-28T03:15:17.236Z,1012.90
2022-08-28T03:16:17.193Z,1012.97
2022-08-28T03:17:17.144Z,1012.93
2022-08-28T03:18:17.109Z,1012.94
2022-08-28T03:19:17.069Z,1012.97
2022-08-28T03:20:17.028Z,1012.92
2022-08-28T03:21:17.010Z,1012.96
2022-08-28T03:22:16.956Z,1012.99
2022-08-28T03:23:16.916Z,1013.02
2022-08-28T03:24:16.878Z,1013.01
2022-08-28T03:25:16.842Z,1013.04
2022-08-28T03:26:16.819Z,1013.03
2022-08-28T03:27:16.766Z,1013.06
2022-08-28T03:28:16.727Z,1013.08
2022-08-28T03:29:16.689Z,1013.13
2022-08-28T03:30:16.650Z,1013.11
2022-08-28T03:31:16.677Z,1013.12
2022-08-28T03:32:16.585Z,1013.13
2022-08-28T03:33:16.539Z,1013.19
2022-08-28T03:34:16.500Z,1013.16
2022-08-28T03:35:16.462Z,1013.16
2022-08-28T03:36:16.423Z,1013.21
2022-08-28T03:37:16.389Z,1013.20
2022-08-28T03:38:16.361Z,1013.24
2022-08-28T03:39:16.309Z,1013.22
2022-08-28T03:40:16.348Z,1013.22
2022-08-28T03:41:16.237Z,1013.27
2022-08-28T03:42:16.198Z,1013.26
2022-08-28T03:43:16.161Z,1013.19
2022-08-28T03:44:16.136Z,1013.21
2022-08-28T03:45:16.085Z,1013.26
2022-08-28T03:46:16.162Z,1013.26
2022-08-28T03:47:16.010Z,1013.27
2022-08-28T03:48:15.970Z,1013.28
2022-08-28T03:49:15.934Z,1013.29
2022-08-28T03:50:15.920Z,1013.31
2022-08-28T03:51:15.859Z,1013.31
2022-08-28T03:52:15.821Z,1013.34
2022-08-28T03:53:15.781Z,1013.35
2022-08-28T03:54:15.741Z,1013.36
2022-08-28T03:55:15.707Z,1013.35
2022-08-28T03:56:15.676Z,1013.38
2022-08-28T03:57:15.629Z,1013.42
2022-08-28T03:58:18.932Z,1013.41
2022-08-28T03:59:15.552Z,1013.39
2022-08-28T04:00:15.515Z,1013.40
2022-08-28T04:01:15.580Z,1013.42
2022-08-28T04:02:15.438Z,1013.42
2022-08-28T04:03:15.442Z,1013.38
2022-08-28T04:04:15.376Z,1013.44
2022-08-28T04:05:15.324Z,1013.43
2022-08-28T04:06:15.284Z,1013.44
2022-08-28T04:07:15.247Z,1013.47
2022-08-28T04:08:15.208Z,1013.45
2022-08-28T04:09:15.170Z,1013.46
2022-08-28T04:10:15.145Z,1013.47
2022-08-28T04:11:15.099Z,1013.48
2022-08-28T04:12:15.056Z,1013.50
2022-08-28T04:13:15.022Z,1013.50
2022-08-28T04:14:14.981Z,1013.51
2022-08-28T04:15:14.943Z,1013.56
2022-08-28T04:16:14.957Z,1013.58
2022-08-28T04:17:14.867Z,1013.51
2022-08-28T04:18:15.033Z,1013.56
2022-08-28T04:19:14.791Z,1013.57
2022-08-28T04:20:14.752Z,1013.57
2022-08-28T04:21:14.719Z,1013.55
2022-08-28T04:22:14.693Z,1013.57
2022-08-28T04:23:14.639Z,1013.59
2022-08-28T04:24:14.598Z,1013.62
2022-08-28T04:25:14.563Z,1013.63
2022-08-28T04:26:14.528Z,1013.62
2022-08-28T04:27:14.488Z,1013.64
2022-08-28T04:28:14.612Z,1013.64
2022-08-28T04:29:14.412Z,1013.58
2022-08-28T04:30:14.372Z,1013.65
2022-08-28T04:31:14.384Z,1013.65
2022-08-28T04:32:14.333Z,1013.62
2022-08-28T04:33:14.257Z,1013.59
2022-08-28T04:34:14.232Z,1013.58
2022-08-28T04:35:14.181Z,1013.60
2022-08-28T04:36:14.141Z,1013.62
2022-08-28T04:37:14.105Z,1013.62
2022-08-28T04:38:14.200Z,1013.61
2022-08-28T04:39:14.028Z,1013.64
2022-08-28T04:40:14.056Z,1013.70
2022-08-28T04:41:13.953Z,1013.68
2022-08-28T04:42:13.912Z,1013.65
2022-08-28T04:43:13.876Z,1013.70
2022-08-28T04:44:13.835Z,1013.70
2022-08-28T04:45:13.797Z,1013.71
2022-08-28T04:46:13.809Z,1013.73
2022-08-28T04:47:13.724Z,1013.75
2022-08-28T04:48:13.981Z,1013.76
2022-08-28T04:49:13.645Z,1013.73
2022-08-28T04:50:13.607Z,1013.76
2022-08-28T04:51:13.584Z,1013.78
2022-08-28T04:52:13.533Z,1013.74
2022-08-28T04:53:13.496Z,1013.77
2022-08-28T04:54:13.455Z,1013.75
2022-08-28T04:55:13.420Z,1013.75
2022-08-28T04:56:23.215Z,1013.75
2022-08-28T04:57:13.343Z,1013.78
2022-08-28T04:58:13.375Z,1013.81
2022-08-28T04:59:13.275Z,1013.85
2022-08-28T05:00:13.251Z,1013.86
2022-08-28T05:01:13.217Z,1013.86
2022-08-28T05:02:13.260Z,1013.86
2022-08-28T05:03:13.113Z,1013.88
2022-08-28T05:04:13.073Z,1013.89
2022-08-28T05:05:13.035Z,1013.86
2022-08-28T05:06:13.008Z,1013.88
2022-08-28T05:07:12.959Z,1013.92
2022-08-28T05:08:13.034Z,1013.91
2022-08-28T05:09:12.884Z,1013.92
2022-08-28T05:10:12.852Z,1013.89
2022-08-28T05:11:12.806Z,1013.89
2022-08-28T05:12:12.776Z,1013.89
2022-08-28T05:13:12.731Z,1013.90
2022-08-28T05:14:15.899Z,1013.95
2022-08-28T05:15:12.655Z,1013.92
2022-08-28T05:16:12.655Z,1013.95
2022-08-28T05:17:12.617Z,1013.95
2022-08-28T05:18:12.676Z,1013.98
2022-08-28T05:19:12.524Z,1014.01
2022-08-28T05:20:12.462Z,1014.00
2022-08-28T05:21:14.473Z,1014.03
2022-08-28T05:22:12.401Z,1014.05
2022-08-28T05:23:12.357Z,1014.01
2022-08-28T05:24:12.310Z,1014.02
2022-08-28T05:25:12.276Z,1014.07
2022-08-28T05:26:12.238Z,1014.08
2022-08-28T05:27:12.200Z,1014.10
2022-08-28T05:28:12.489Z,1014.11
2022-08-28T05:29:12.121Z,1014.15
2022-08-28T05:30:12.083Z,1014.14
2022-08-28T05:31:12.082Z,1014.14
2022-08-28T05:32:12.008Z,1014.15
2022-08-28T05:33:11.970Z,1014.15
2022-08-28T05:34:11.944Z,1014.20
2022-08-28T05:35:11.895Z,1014.21
2022-08-28T05:36:11.855Z,1014.22
2022-08-28T05:37:13.050Z,1014.23
2022-08-28T05:38:11.996Z,1014.21
2022-08-28T05:39:11.761Z,1014.23
2022-08-28T05:40:11.757Z,1014.25
2022-08-28T05:41:11.669Z,1014.24
2022-08-28T05:42:11.639Z,1014.24
2022-08-28T05:43:11.605Z,1014.23
2022-08-28T05:44:11.569Z,1014.22
2022-08-28T05:45:11.519Z,1014.25
2022-08-28T05:46:11.583Z,1014.26
2022-08-28T05:47:11.481Z,1014.28
2022-08-28T05:48:11.538Z,1014.22
2022-08-28T05:49:11.363Z,1014.29
2022-08-28T05:50:11.340Z,1014.30
2022-08-28T05:51:11.295Z,1014.30
2022-08-28T05:52:11.265Z,1014.32
2022-08-28T05:53:11.215Z,1014.36
2022-08-28T05:54:11.175Z,1014.35
2022-08-28T05:55:11.139Z,1014.37
2022-08-28T05:56:11.101Z,1014.37
2022-08-28T05:57:11.064Z,1014.37
2022-08-28T05:58:11.039Z,1014.36
2022-08-28T05:59:10.990Z,1014.40
2022-08-28T06:00:10.956Z,1014.42
2022-08-28T06:01:10.917Z,1014.40
2022-08-28T06:02:10.954Z,1014.42
2022-08-28T06:03:10.851Z,1014.38
2022-08-28T06:04:10.894Z,1014.42
2022-08-28T06:05:13.076Z,1014.45
2022-08-28T06:06:10.727Z,1014.54
2022-08-28T06:07:10.691Z,1014.50
2022-08-28T06:08:10.657Z,1014.46
2022-08-28T06:09:10.615Z,1014.45
2022-08-28T06:10:10.940Z,1014.52
2022-08-28T06:11:10.544Z,1014.50
2022-08-28T06:12:10.503Z,1014.51
2022-08-28T06:13:10.473Z,1014.53
2022-08-28T06:14:10.434Z,1014.50
2022-08-28T06:15:10.401Z,1014.53
2022-08-28T06:16:10.387Z,1014.58
2022-08-28T06:17:10.322Z,1014.60
2022-08-28T06:18:10.284Z,1014.56
2022-08-28T06:19:10.249Z,1014.56
2022-08-28T06:20:10.210Z,1014.54
2022-08-28T06:21:10.178Z,1014.54
2022-08-28T06:22:10.147Z,1014.57
2022-08-28T06:23:10.102Z,1014.57
2022-08-28T06:24:10.065Z,1014.58
2022-08-28T06:25:10.027Z,1014.61
2022-08-28T06:26:09.991Z,1014.56
2022-08-28T06:27:09.955Z,1014.63
2022-08-28T06:28:09.927Z,1014.62
2022-08-28T06:29:09.892Z,1014.64
2022-08-28T06:30:09.845Z,1014.64
2022-08-28T06:31:24.335Z,1014.65
2022-08-28T06:32:09.814Z,1014.65
2022-08-28T06:33:09.737Z,1014.67
2022-08-28T06:34:09.706Z,1014.72
2022-08-28T06:35:09.678Z,1014.74
2022-08-28T06:36:09.625Z,1014.77
2022-08-28T06:37:09.589Z,1014.78
2022-08-28T06:38:09.579Z,1014.81
2022-08-28T06:39:09.520Z,1014.86
2022-08-28T06:40:09.520Z,1014.90
2022-08-28T06:41:09.455Z,1014.87
2022-08-28T06:42:09.417Z,1014.88
2022-08-28T06:43:09.373Z,1015.03
2022-08-28T06:44:09.336Z,1014.94
2022-08-28T06:45:09.299Z,1014.86
2022-08-28T06:46:09.318Z,1014.89
2022-08-28T06:47:09.259Z,1014.86
2022-08-28T06:48:09.223Z,1014.85
2022-08-28T06:49:09.154Z,1014.86
2022-08-28T06:50:09.118Z,1014.86
2022-08-28T06:51:09.084Z,1014.86
2022-08-28T06:52:09.046Z,1014.89
2022-08-28T06:53:09.021Z,1014.93
2022-08-28T06:54:08.978Z,1014.92
2022-08-28T06:55:08.937Z,1014.97
2022-08-28T06:56:08.901Z,1014.96
2022-08-28T06:57:08.869Z,1014.98
2022-08-28T06:58:08.883Z,1015.06
2022-08-28T06:59:08.805Z,1015.01
2022-08-28T07:00:08.761Z,1015.00
2022-08-28T07:01:08.774Z,1014.98
2022-08-28T07:02:08.802Z,1014.99
2022-08-28T07:03:08.660Z,1015.02
2022-08-28T07:04:08.616Z,1015.00
2022-08-28T07:05:08.590Z,1014.98
2022-08-28T07:06:08.547Z,1014.94
2022-08-28T07:07:08.505Z,1014.94
2022-08-28T07:08:08.543Z,1014.93
2022-08-28T07:09:08.438Z,1014.98
2022-08-28T07:10:08.401Z,1014.97
2022-08-28T07:11:08.379Z,1014.94
2022-08-28T07:12:08.329Z,1014.95
2022-08-28T07:13:08.292Z,1015.40
2022-08-28T07:14:08.257Z,1015.29
2022-08-28T07:15:08.221Z,1015.21
2022-08-28T07:16:08.205Z,1015.41
2022-08-28T07:17:08.159Z,1015.29
2022-08-28T07:18:08.153Z,1014.93
2022-08-28T07:19:08.093Z,1015.55
2022-08-28T07:20:08.049Z,1015.69
2022-08-28T07:21:12.092Z,1015.71
2022-08-28T07:22:07.976Z,1015.75
2022-08-28T07:23:07.937Z,1015.81
2022-08-28T07:24:07.902Z,1015.71
2022-08-28T07:25:07.880Z,1015.60
2022-08-28T07:26:07.836Z,1015.83
2022-08-28T07:27:07.801Z,1015.57
2022-08-28T07:28:07.766Z,1015.82
2022-08-28T07:29:10.912Z,1015.88
2022-08-28T07:30:07.697Z,1015.80
2022-08-28T07:31:07.732Z,1015.89
2022-08-28T07:32:07.628Z,1015.93
2022-08-28T07:33:07.595Z,1015.98
2022-08-28T07:34:07.559Z,1015.95
2022-08-28T07:35:07.527Z,1015.98
2022-08-28T07:36:07.491Z,1016.15
2022-08-28T07:37:08.142Z,1016.08
2022-08-28T07:38:07.425Z,1016.09
2022-08-28T07:39:07.391Z,1016.16
2022-08-28T07:40:07.432Z,1016.08
2022-08-28T07:41:07.351Z,1016.19
2022-08-28T07:42:07.294Z,1015.29
2022-08-28T07:43:07.272Z,1016.16
2022-08-28T07:44:07.227Z,1015.18
2022-08-28T07:45:07.198Z,1015.18
2022-08-28T07:46:07.249Z,1015.91
2022-08-28T07:47:08.873Z,1015.24
2022-08-28T07:48:11.146Z,1015.74
2022-08-28T07:49:07.069Z,1016.05
2022-08-28T07:50:07.028Z,1015.72
2022-08-28T07:51:06.996Z,1015.70
2022-08-28T07:52:06.961Z,1016.15
2022-08-28T07:53:06.925Z,1016.23
2022-08-28T07:54:06.897Z,1016.14
2022-08-28T07:55:06.876Z,1016.21
2022-08-28T07:56:06.829Z,1016.27
2022-08-28T07:57:06.797Z,1015.30
2022-08-28T07:58:06.764Z,1016.15
2022-08-28T07:59:06.728Z,1015.35
2022-08-28T08:00:06.696Z,1015.24
2022-08-28T08:01:06.703Z,1016.23
2022-08-28T08:02:06.642Z,1015.36
2022-08-28T08:03:06.638Z,1016.03
2022-08-28T08:04:06.563Z,1016.17
2022-08-28T08:05:06.588Z,1015.87
2022-08-28T08:06:06.497Z,1015.98
2022-08-28T08:07:06.467Z,1016.23
2022-08-28T08:08:06.487Z,1016.23
2022-08-28T08:09:06.400Z,1016.19
2022-08-28T08:10:06.366Z,1016.23
2022-08-28T08:11:06.332Z,1016.23
2022-08-28T08:12:06.300Z,1016.06
2022-08-28T08:13:06.267Z,1016.23
2022-08-28T08:14:06.248Z,1016.29
2022-08-28T08:15:06.200Z,1016.30
2022-08-28T08:16:06.235Z,1016.31
2022-08-28T08:17:07.466Z,1016.32
2022-08-28T08:18:06.181Z,1016.30
2022-08-28T08:19:06.084Z,1016.32
2022-08-28T08:20:06.047Z,1016.03
2022-08-28T08:21:06.011Z,1016.22
2022-08-28T08:22:05.983Z,1016.27
2022-08-28T08:23:05.944Z,1015.61
2022-08-28T08:24:05.921Z,1015.47
2022-08-28T08:25:05.897Z,1015.54
2022-08-28T08:26:05.848Z,1015.46
2022-08-28T08:27:05.816Z,1016.28
2022-08-28T08:28:05.802Z,1015.60
2022-08-28T08:29:05.756Z,1015.41
2022-08-28T08:30:05.727Z,1015.48
2022-08-28T08:31:05.771Z,1015.49
2022-08-28T08:32:06.339Z,1016.23
2022-08-28T08:33:05.628Z,1016.03
2022-08-28T08:34:05.591Z,1015.42
2022-08-28T08:35:05.559Z,1015.42
2022-08-28T08:36:05.538Z,1016.23
2022-08-28T08:37:05.570Z,1016.22
2022-08-28T08:38:05.471Z,1015.99
2022-08-28T08:39:06.576Z,1016.11
2022-08-28T08:40:10.051Z,1015.94
2022-08-28T08:41:05.371Z,1015.40
2022-08-28T08:42:05.329Z,1015.64
2022-08-28T08:43:05.309Z,1016.26
2022-08-28T08:44:05.264Z,1015.34
2022-08-28T08:45:05.231Z,1015.85
2022-08-28T08:46:05.247Z,1016.25
2022-08-28T08:47:05.165Z,1016.30
2022-08-28T08:48:05.261Z,1015.44
2022-08-28T08:49:05.109Z,1015.53
2022-08-28T08:50:05.069Z,1016.23
2022-08-28T08:51:05.039Z,1015.96
2022-08-28T08:52:05.016Z,1015.48
2022-08-28T08:53:04.967Z,1016.31
2022-08-28T08:54:04.936Z,1016.25
2022-08-28T08:55:04.931Z,1016.24
2022-08-28T08:56:04.872Z,1016.30
2022-08-28T08:57:04.838Z,1016.30
2022-08-28T08:58:04.864Z,1015.49
2022-08-28T08:59:04.777Z,1016.32
2022-08-28T09:00:04.739Z,1016.25
2022-08-28T09:01:04.773Z,1016.27
2022-08-28T09:02:04.673Z,1015.57
2022-08-28T09:03:04.737Z,1016.29
2022-08-28T09:04:04.608Z,1016.21
2022-08-28T09:05:04.578Z,1015.50
2022-08-28T09:06:04.545Z,1016.28
2022-08-28T09:07:04.524Z,1016.27
2022-08-28T09:08:04.480Z,1016.22
2022-08-28T09:09:04.454Z,1016.21
2022-08-28T09:10:04.420Z,1016.24
2022-08-28T09:11:04.385Z,1016.29
2022-08-28T09:12:04.353Z,1016.33
2022-08-28T09:13:04.349Z,1015.46
2022-08-28T09:14:04.293Z,1016.30
2022-08-28T09:15:04.258Z,1016.14
2022-08-28T09:16:04.267Z,1016.28
2022-08-28T09:17:04.194Z,1016.21
2022-08-28T09:18:04.161Z,1016.22
2022-08-28T09:19:04.141Z,1016.23
2022-08-28T09:20:04.097Z,1016.26
2022-08-28T09:21:04.072Z,1016.31
2022-08-28T09:22:04.041Z,1016.23
2022-08-28T09:23:12.352Z,1016.30
2022-08-28T09:24:05.836Z,1016.27
2022-08-28T09:25:03.952Z,1016.33
2022-08-28T09:26:03.909Z,1016.28
2022-08-28T09:27:03.882Z,1016.20
2022-08-28T09:28:03.852Z,1016.27
2022-08-28T09:29:03.825Z,1016.13
2022-08-28T09:30:07.718Z,1016.19
2022-08-28T09:31:03.909Z,1016.04
2022-08-28T09:32:03.722Z,1015.70
2022-08-28T09:33:03.687Z,1016.12
2022-08-28T09:34:03.661Z,1015.98
2022-08-28T09:35:03.645Z,1016.01
2022-08-28T09:36:03.596Z,1016.12
2022-08-28T09:37:03.568Z,1016.40
2022-08-28T09:38:03.538Z,1016.20
2022-08-28T09:39:03.506Z,1016.05
2022-08-28T09:40:03.558Z,1015.95
2022-08-28T09:41:03.456Z,1016.03
2022-08-28T09:42:03.416Z,1015.93
2022-08-28T09:43:03.388Z,1016.02
2022-08-28T09:44:03.353Z,1015.83
2022-08-28T09:45:09.241Z,1016.07
2022-08-28T09:46:03.337Z,1016.15
2022-08-28T09:47:03.271Z,1016.16
2022-08-28T09:48:03.226Z,1016.11
2022-08-28T09:49:03.201Z,1016.14
2022-08-28T09:50:03.186Z,1016.18
2022-08-28T09:51:03.138Z,1016.21
2022-08-28T09:52:03.117Z,1016.25
2022-08-28T09:53:03.102Z,1016.14
2022-08-28T09:54:03.046Z,1016.20
2022-08-28T09:55:03.015Z,1016.05
2022-08-28T09:56:02.985Z,1016.20
2022-08-28T09:57:02.951Z,1016.19
2022-08-28T09:58:02.932Z,1016.08
2022-08-28T09:59:02.902Z,1016.00
2022-08-28T10:00:02.859Z,1015.70
2022-08-28T10:01:02.836Z,1016.21
2022-08-28T10:02:02.836Z,1016.03
2022-08-28T10:03:07.402Z,1016.05
2022-08-28T10:04:02.775Z,1016.00
2022-08-28T10:05:02.756Z,1016.13
2022-08-28T10:06:02.692Z,1016.15
2022-08-28T10:07:02.643Z,1016.13
2022-08-28T10:08:02.617Z,1016.08
2022-08-28T10:09:02.603Z,1016.06
2022-08-28T10:10:02.556Z,1016.06
2022-08-28T10:11:02.521Z,1016.07
2022-08-28T10:12:02.489Z,1016.08
2022-08-28T10:13:02.460Z,1016.10
2022-08-28T10:14:02.429Z,1015.63
2022-08-28T10:15:02.417Z,1016.04
2022-08-28T10:16:02.417Z,1016.03
2022-08-28T10:17:02.335Z,1016.08
2022-08-28T10:18:02.304Z,1016.10
2022-08-28T10:19:02.275Z,1016.03
2022-08-28T10:20:02.246Z,1016.10
2022-08-28T10:21:02.227Z,1016.05
2022-08-28T10:22:02.181Z,1016.05
2022-08-28T10:23:02.147Z,1016.05
2022-08-28T10:24:02.121Z,1016.03
2022-08-28T10:25:02.094Z,1016.07
2022-08-28T10:26:02.057Z,1015.77
2022-08-28T10:27:02.024Z,1015.85
2022-08-28T10:28:02.015Z,1015.72
2022-08-28T10:29:01.963Z,1015.71
2022-08-28T10:30:06.728Z,1015.47
2022-08-28T10:31:01.967Z,1015.48
2022-08-28T10:32:01.870Z,1015.50
2022-08-28T10:33:01.836Z,1015.61
2022-08-28T10:34:01.806Z,1015.57
2022-08-28T10:35:01.777Z,1016.04
2022-08-28T10:36:01.743Z,1015.83
2022-08-28T10:37:01.728Z,1015.60
2022-08-28T10:38:01.680Z,1015.57
2022-08-28T10:39:01.651Z,1015.86
2022-08-28T10:40:01.641Z,1015.98
2022-08-28T10:41:01.585Z,1015.89
2022-08-28T10:42:01.557Z,1015.73
2022-08-28T10:43:01.537Z,1015.87
2022-08-28T10:44:01.491Z,1015.87
2022-08-28T10:45:01.461Z,1015.93
2022-08-28T10:46:01.452Z,1015.79
2022-08-28T10:47:01.398Z,1015.50
2022-08-28T10:48:01.370Z,1015.93
2022-08-28T10:49:01.343Z,1015.74
2022-08-28T10:50:01.305Z,1015.91
2022-08-28T10:51:01.271Z,1015.81
2022-08-28T10:52:01.241Z,1015.91
2022-08-28T10:53:01.209Z,1015.63
2022-08-28T10:54:01.179Z,1015.56
2022-08-28T10:55:01.159Z,1015.53
2022-08-28T10:56:10.392Z,1015.47
2022-08-28T10:57:01.088Z,1015.73
2022-08-28T10:58:01.052Z,1015.46
2022-08-28T10:59:01.021Z,1015.50
2022-08-28T11:00:00.988Z,1015.49
2022-08-28T11:01:01.045Z,1015.50
2022-08-28T11:02:00.978Z,1015.49
2022-08-28T11:03:00.965Z,1015.46
2022-08-28T11:04:00.864Z,1015.46
2022-08-28T11:05:00.837Z,1015.44
2022-08-28T11:06:00.813Z,1015.58
2022-08-28T11:07:00.817Z,1015.56
2022-08-28T11:08:00.826Z,1015.71
2022-08-28T11:09:00.736Z,1015.72
2022-08-28T11:10:00.724Z,1015.48
2022-08-28T11:11:00.656Z,1015.80
2022-08-28T11:12:02.285Z,1015.82
2022-08-28T11:13:00.575Z,1015.75
2022-08-28T11:14:00.544Z,1015.78
2022-08-28T11:15:00.513Z,1015.80
2022-08-28T11:16:00.482Z,1015.78
2022-08-28T11:17:00.526Z,1015.83
2022-08-28T11:18:00.415Z,1015.87
2022-08-28T11:19:00.386Z,1015.93
2022-08-28T11:20:00.353Z,1015.79
2022-08-28T11:21:00.320Z,1015.94
2022-08-28T11:22:00.305Z,1015.89
2022-08-28T11:23:00.260Z,1015.92
2022-08-28T11:24:00.234Z,1015.98
2022-08-28T11:25:04.285Z,1015.92
2022-08-28T11:26:00.159Z,1015.89
2022-08-28T11:27:00.130Z,1015.85
2022-08-28T11:28:00.113Z,1015.81
2022-08-28T11:29:00.077Z,1015.83
2022-08-28T11:30:00.034Z,1015.74
2022-08-28T11:31:00.076Z,1015.73
2022-08-28T11:31:59.973Z,1015.75
2022-08-28T11:32:59.939Z,1015.81
2022-08-28T11:33:59.906Z,1015.86
2022-08-28T11:34:59.889Z,1015.87
2022-08-28T11:35:59.840Z,1015.89
2022-08-28T11:36:59.813Z,1015.85
2022-08-28T11:37:59.780Z,1016.00
2022-08-28T11:38:59.747Z,1016.02
2022-08-28T11:39:59.825Z,1015.96
2022-08-28T11:40:59.761Z,1015.95
2022-08-28T11:41:59.656Z,1015.93
2022-08-28T11:42:59.621Z,1015.91
2022-08-28T11:43:59.588Z,1015.93
2022-08-28T11:44:59.559Z,1015.92
2022-08-28T11:45:59.553Z,1015.92
2022-08-28T11:46:59.497Z,1015.86
2022-08-28T11:47:59.466Z,1015.91
2022-08-28T11:48:59.433Z,1015.94
2022-08-28T11:49:59.402Z,1016.05
2022-08-28T11:50:59.493Z,1015.94
2022-08-28T11:51:59.351Z,1015.93
2022-08-28T11:52:59.315Z,1016.00
2022-08-28T11:53:59.279Z,1015.94
2022-08-28T11:54:59.252Z,1015.97
2022-08-28T11:55:59.220Z,1016.01
2022-08-28T11:56:59.191Z,1015.97
2022-08-28T11:58:20.197Z,1015.89
2022-08-28T11:58:59.234Z,1015.87
2022-08-28T11:59:59.094Z,1015.85
2022-08-28T12:00:59.070Z,1015.92
2022-08-28T12:01:59.120Z,1015.88
2022-08-28T12:02:59.951Z,1015.89
2022-08-28T12:03:59.059Z,1015.85
2022-08-28T12:04:58.952Z,1015.88